sensor_id;sensor_type;location;lat;lon;timestamp;temperature;humidity
52073;DHT22;38074;51.232;6.826;2022-08-04T00:04:13;27.30;53.00
52073;DHT22;38074;51.232;6.826;2022-08-04T00:11:30;27.30;53.00
52073;DHT22;38074;51.232;6.826;2022-08-04T00:18:54;27.20;52.90
52073;DHT22;38074;51.232;6.826;2022-08-04T00:26:11;27.20;52.80
52073;DHT22;38074;51.232;6.826;2022-08-04T00:33:31;27.20;52.90
52073;DHT22;38074;51.232;6.826;2022-08-04T00:48:41;27.20;52.80
52073;DHT22;38074;51.232;6.826;2022-08-04T01:12:12;27.30;53.00
52073;DHT22;38074;51.232;6.826;2022-08-04T01:34:36;27.20;52.90
52073;DHT22;38074;51.232;6.826;2022-08-04T01:41:54;27.20;53.00
52073;DHT22;38074;51.232;6.826;2022-08-04T01:49:11;27.20;53.00
52073;DHT22;38074;51.232;6.826;2022-08-04T01:56:28;27.20;53.20
52073;DHT22;38074;51.232;6.826;2022-08-04T02:03:45;27.20;53.20
52073;DHT22;38074;51.232;6.826;2022-08-04T02:11:17;27.20;53.20
52073;DHT22;38074;51.232;6.826;2022-08-04T02:18:50;27.20;53.30
52073;DHT22;38074;51.232;6.826;2022-08-04T02:26:14;27.20;53.30
52073;DHT22;38074;51.232;6.826;2022-08-04T02:33:45;27.20;53.40
52073;DHT22;38074;51.232;6.826;2022-08-04T02:41:01;27.20;53.60
52073;DHT22;38074;51.232;6.826;2022-08-04T02:48:18;27.20;53.60
52073;DHT22;38074;51.232;6.826;2022-08-04T02:55:37;27.20;53.90
52073;DHT22;38074;51.232;6.826;2022-08-04T03:03:13;27.20;53.90
52073;DHT22;38074;51.232;6.826;2022-08-04T03:48:52;27.20;53.80
52073;DHT22;38074;51.232;6.826;2022-08-04T03:56:26;27.20;54.00
52073;DHT22;38074;51.232;6.826;2022-08-04T04:04:24;27.20;53.80
52073;DHT22;38074;51.232;6.826;2022-08-04T04:20:12;27.20;54.30
52073;DHT22;38074;51.232;6.826;2022-08-04T04:28:10;27.20;54.20
52073;DHT22;38074;51.232;6.826;2022-08-04T04:35:57;27.20;54.30
52073;DHT22;38074;51.232;6.826;2022-08-04T04:43:30;27.20;54.10
52073;DHT22;38074;51.232;6.826;2022-08-04T04:51:00;27.20;54.20
52073;DHT22;38074;51.232;6.826;2022-08-04T04:58:19;27.20;54.30
52073;DHT22;38074;51.232;6.826;2022-08-04T05:05:45;27.20;54.40
52073;DHT22;38074;51.232;6.826;2022-08-04T05:13:30;27.20;54.40
52073;DHT22;38074;51.232;6.826;2022-08-04T05:20:54;27.20;54.10
52073;DHT22;38074;51.232;6.826;2022-08-04T05:28:15;27.20;54.30
52073;DHT22;38074;51.232;6.826;2022-08-04T05:35:43;27.20;54.30
52073;DHT22;38074;51.232;6.826;2022-08-04T05:43:00;27.20;54.10
52073;DHT22;38074;51.232;6.826;2022-08-04T05:50:15;27.20;54.60
52073;DHT22;38074;51.232;6.826;2022-08-04T05:57:32;27.10;54.60
52073;DHT22;38074;51.232;6.826;2022-08-04T06:04:49;26.90;54.90
52073;DHT22;38074;51.232;6.826;2022-08-04T06:12:20;26.70;55.10
52073;DHT22;38074;51.232;6.826;2022-08-04T06:19:39;26.80;55.00
52073;DHT22;38074;51.232;6.826;2022-08-04T06:26:56;26.90;54.80
52073;DHT22;38074;51.232;6.826;2022-08-04T06:34:14;26.90;54.50
52073;DHT22;38074;51.232;6.826;2022-08-04T06:41:31;27.00;55.00
52073;DHT22;38074;51.232;6.826;2022-08-04T06:48:48;27.10;54.70
52073;DHT22;38074;51.232;6.826;2022-08-04T06:56:07;27.10;54.60
52073;DHT22;38074;51.232;6.826;2022-08-04T07:03:23;27.10;54.50
52073;DHT22;38074;51.232;6.826;2022-08-04T07:10:39;27.20;54.30
52073;DHT22;38074;51.232;6.826;2022-08-04T07:17:55;27.20;54.30
52073;DHT22;38074;51.232;6.826;2022-08-04T07:25:16;27.20;54.30
52073;DHT22;38074;51.232;6.826;2022-08-04T07:32:32;27.20;54.30
52073;DHT22;38074;51.232;6.826;2022-08-04T07:39:48;27.20;54.20
52073;DHT22;38074;51.232;6.826;2022-08-04T07:47:06;27.20;54.00
52073;DHT22;38074;51.232;6.826;2022-08-04T07:54:22;27.20;53.80
52073;DHT22;38074;51.232;6.826;2022-08-04T08:01:39;27.20;53.70
52073;DHT22;38074;51.232;6.826;2022-08-04T08:08:55;27.30;53.50
52073;DHT22;38074;51.232;6.826;2022-08-04T08:16:11;27.30;53.00
52073;DHT22;38074;51.232;6.826;2022-08-04T08:23:27;27.30;52.90
52073;DHT22;38074;51.232;6.826;2022-08-04T08:30:44;27.30;52.70
52073;DHT22;38074;51.232;6.826;2022-08-04T08:38:02;27.30;52.70
52073;DHT22;38074;51.232;6.826;2022-08-04T08:53:42;27.40;52.80
52073;DHT22;38074;51.232;6.826;2022-08-04T09:01:06;27.30;52.70
52073;DHT22;38074;51.232;6.826;2022-08-04T09:08:38;27.40;52.80
52073;DHT22;38074;51.232;6.826;2022-08-04T09:16:01;27.40;52.80
52073;DHT22;38074;51.232;6.826;2022-08-04T09:38:17;27.40;53.00
52073;DHT22;38074;51.232;6.826;2022-08-04T09:45:45;27.40;53.30
52073;DHT22;38074;51.232;6.826;2022-08-04T10:01:19;27.40;53.00
52073;DHT22;38074;51.232;6.826;2022-08-04T10:09:00;27.40;53.00
52073;DHT22;38074;51.232;6.826;2022-08-04T10:31:28;27.40;53.20
52073;DHT22;38074;51.232;6.826;2022-08-04T10:46:23;27.50;53.40
52073;DHT22;38074;51.232;6.826;2022-08-04T10:53:41;27.50;53.40
52073;DHT22;38074;51.232;6.826;2022-08-04T11:01:01;27.40;53.40
52073;DHT22;38074;51.232;6.826;2022-08-04T11:08:37;27.50;53.70
52073;DHT22;38074;51.232;6.826;2022-08-04T11:15:55;27.50;54.00
52073;DHT22;38074;51.232;6.826;2022-08-04T11:23:15;27.50;53.20
52073;DHT22;38074;51.232;6.826;2022-08-04T11:31:02;27.50;53.10
52073;DHT22;38074;51.232;6.826;2022-08-04T11:46:07;27.50;53.30
52073;DHT22;38074;51.232;6.826;2022-08-04T11:53:24;27.50;53.40
52073;DHT22;38074;51.232;6.826;2022-08-04T12:01:14;27.50;54.00
52073;DHT22;38074;51.232;6.826;2022-08-04T12:09:06;27.50;54.00
52073;DHT22;38074;51.232;6.826;2022-08-04T12:16:45;27.50;54.00
52073;DHT22;38074;51.232;6.826;2022-08-04T12:24:05;27.60;54.10
52073;DHT22;38074;51.232;6.826;2022-08-04T12:39:02;27.60;53.60
52073;DHT22;38074;51.232;6.826;2022-08-04T12:46:25;27.50;54.20
52073;DHT22;38074;51.232;6.826;2022-08-04T12:53:42;27.60;54.60
52073;DHT22;38074;51.232;6.826;2022-08-04T13:01:05;27.70;55.00
52073;DHT22;38074;51.232;6.826;2022-08-04T13:08:22;27.70;55.10
52073;DHT22;38074;51.232;6.826;2022-08-04T13:15:38;27.70;55.20
52073;DHT22;38074;51.232;6.826;2022-08-04T13:23:07;27.70;55.00
52073;DHT22;38074;51.232;6.826;2022-08-04T13:30:24;27.70;54.90
52073;DHT22;38074;51.232;6.826;2022-08-04T13:37:41;27.70;54.90
52073;DHT22;38074;51.232;6.826;2022-08-04T13:44:59;27.70;54.80
52073;DHT22;38074;51.232;6.826;2022-08-04T13:52:15;27.80;54.40
52073;DHT22;38074;51.232;6.826;2022-08-04T13:59:34;27.70;54.20
52073;DHT22;38074;51.232;6.826;2022-08-04T14:07:09;27.70;54.20
52073;DHT22;38074;51.232;6.826;2022-08-04T14:14:28;27.70;54.00
52073;DHT22;38074;51.232;6.826;2022-08-04T14:21:44;27.70;54.10
52073;DHT22;38074;51.232;6.826;2022-08-04T14:29:12;27.70;54.30
52073;DHT22;38074;51.232;6.826;2022-08-04T14:36:38;27.70;54.30
52073;DHT22;38074;51.232;6.826;2022-08-04T14:43:58;27.70;54.30
52073;DHT22;38074;51.232;6.826;2022-08-04T14:51:14;27.80;54.60
52073;DHT22;38074;51.232;6.826;2022-08-04T14:58:32;27.80;54.80
52073;DHT22;38074;51.232;6.826;2022-08-04T15:05:48;27.80;54.80
52073;DHT22;38074;51.232;6.826;2022-08-04T15:13:06;27.70;54.80
52073;DHT22;38074;51.232;6.826;2022-08-04T15:20:21;27.80;54.70
52073;DHT22;38074;51.232;6.826;2022-08-04T15:27:39;27.80;54.80
52073;DHT22;38074;51.232;6.826;2022-08-04T15:35:01;27.80;54.90
52073;DHT22;38074;51.232;6.826;2022-08-04T15:42:20;27.80;55.10
52073;DHT22;38074;51.232;6.826;2022-08-04T15:49:38;27.80;55.30
52073;DHT22;38074;51.232;6.826;2022-08-04T15:56:57;27.80;55.20
52073;DHT22;38074;51.232;6.826;2022-08-04T16:04:23;27.80;55.40
52073;DHT22;38074;51.232;6.826;2022-08-04T16:11:39;27.80;55.20
52073;DHT22;38074;51.232;6.826;2022-08-04T16:19:07;27.80;55.80
52073;DHT22;38074;51.232;6.826;2022-08-04T16:33:59;27.90;55.50
52073;DHT22;38074;51.232;6.826;2022-08-04T16:41:38;27.80;55.90
52073;DHT22;38074;51.232;6.826;2022-08-04T16:49:06;27.80;55.80
52073;DHT22;38074;51.232;6.826;2022-08-04T16:56:29;27.80;55.90
52073;DHT22;38074;51.232;6.826;2022-08-04T17:03:49;27.90;56.10
52073;DHT22;38074;51.232;6.826;2022-08-04T17:11:06;27.80;56.20
52073;DHT22;38074;51.232;6.826;2022-08-04T17:18:27;27.90;56.80
52073;DHT22;38074;51.232;6.826;2022-08-04T17:25:55;27.90;57.00
52073;DHT22;38074;51.232;6.826;2022-08-04T17:33:12;27.90;56.50
52073;DHT22;38074;51.232;6.826;2022-08-04T17:40:28;27.80;56.50
52073;DHT22;38074;51.232;6.826;2022-08-04T17:47:51;27.90;56.70
52073;DHT22;38074;51.232;6.826;2022-08-04T17:55:22;27.90;56.80
52073;DHT22;38074;51.232;6.826;2022-08-04T18:02:54;27.80;56.70
52073;DHT22;38074;51.232;6.826;2022-08-04T18:10:09;27.90;56.70
52073;DHT22;38074;51.232;6.826;2022-08-04T18:17:38;27.80;57.10
52073;DHT22;38074;51.232;6.826;2022-08-04T18:24:54;27.90;57.30
52073;DHT22;38074;51.232;6.826;2022-08-04T18:32:10;27.90;57.60
52073;DHT22;38074;51.232;6.826;2022-08-04T18:39:26;27.90;57.70
52073;DHT22;38074;51.232;6.826;2022-08-04T18:46:43;27.90;58.00
52073;DHT22;38074;51.232;6.826;2022-08-04T18:53:59;27.90;58.00
52073;DHT22;38074;51.232;6.826;2022-08-04T19:01:15;27.90;58.20
52073;DHT22;38074;51.232;6.826;2022-08-04T19:08:30;27.90;57.90
52073;DHT22;38074;51.232;6.826;2022-08-04T19:15:46;27.90;57.60
52073;DHT22;38074;51.232;6.826;2022-08-04T19:23:02;27.90;57.30
52073;DHT22;38074;51.232;6.826;2022-08-04T19:30:17;27.90;57.60
52073;DHT22;38074;51.232;6.826;2022-08-04T19:37:33;27.90;57.90
52073;DHT22;38074;51.232;6.826;2022-08-04T19:44:48;27.90;57.80
52073;DHT22;38074;51.232;6.826;2022-08-04T19:52:04;27.90;57.80
52073;DHT22;38074;51.232;6.826;2022-08-04T19:59:21;28.00;58.30
52073;DHT22;38074;51.232;6.826;2022-08-04T20:06:37;28.00;57.80
52073;DHT22;38074;51.232;6.826;2022-08-04T20:13:52;28.00;57.80
52073;DHT22;38074;51.232;6.826;2022-08-04T20:21:08;28.00;58.00
52073;DHT22;38074;51.232;6.826;2022-08-04T20:28:23;28.00;58.20
52073;DHT22;38074;51.232;6.826;2022-08-04T20:35:40;28.00;58.40
52073;DHT22;38074;51.232;6.826;2022-08-04T20:42:57;27.90;58.50
52073;DHT22;38074;51.232;6.826;2022-08-04T20:50:13;27.90;58.20
52073;DHT22;38074;51.232;6.826;2022-08-04T20:57:28;27.90;58.00
52073;DHT22;38074;51.232;6.826;2022-08-04T21:04:44;28.00;58.00
52073;DHT22;38074;51.232;6.826;2022-08-04T21:12:00;28.00;57.80
52073;DHT22;38074;51.232;6.826;2022-08-04T21:19:16;28.00;58.00
52073;DHT22;38074;51.232;6.826;2022-08-04T21:26:32;28.00;58.20
52073;DHT22;38074;51.232;6.826;2022-08-04T21:33:47;28.00;58.70
52073;DHT22;38074;51.232;6.826;2022-08-04T21:41:03;28.00;58.60
52073;DHT22;38074;51.232;6.826;2022-08-04T21:48:18;28.00;58.30
52073;DHT22;38074;51.232;6.826;2022-08-04T21:55:34;28.00;57.70
52073;DHT22;38074;51.232;6.826;2022-08-04T22:02:49;28.00;57.50
52073;DHT22;38074;51.232;6.826;2022-08-04T22:10:06;27.90;57.30
52073;DHT22;38074;51.232;6.826;2022-08-04T22:17:21;27.90;57.00
52073;DHT22;38074;51.232;6.826;2022-08-04T22:24:37;27.90;56.80
52073;DHT22;38074;51.232;6.826;2022-08-04T22:31:52;27.90;56.90
52073;DHT22;38074;51.232;6.826;2022-08-04T22:39:09;27.90;56.80
52073;DHT22;38074;51.232;6.826;2022-08-04T22:46:26;27.90;56.70
52073;DHT22;38074;51.232;6.826;2022-08-04T22:53:43;27.90;56.70
52073;DHT22;38074;51.232;6.826;2022-08-04T23:00:58;27.90;56.80
52073;DHT22;38074;51.232;6.826;2022-08-04T23:08:14;27.80;56.70
52073;DHT22;38074;51.232;6.826;2022-08-04T23:15:30;27.90;56.80
52073;DHT22;38074;51.232;6.826;2022-08-04T23:22:45;27.90;56.80
52073;DHT22;38074;51.232;6.826;2022-08-04T23:30:02;27.90;56.70
52073;DHT22;38074;51.232;6.826;2022-08-04T23:37:18;27.80;56.50
52073;DHT22;38074;51.232;6.826;2022-08-04T23:44:33;27.80;56.30
52073;DHT22;38074;51.232;6.826;2022-08-04T23:51:49;27.80;56.20
52073;DHT22;38074;51.232;6.826;2022-08-04T23:59:04;27.80;56.20
